Time;durP1;ratioP1;P1;durP2;ratioP2;P2;SDS_P1;SDS_P2;PMS_P1;PMS_P2;Temp;Humidity;BMP_temperature;BMP_pressure;BME280_temperature;BME280_humidity;BME280_pressure;Samples;Min_cycle;Max_cycle;Signal;HPM_P1;HPM_P2
2021/11/02 00:00:35;;;;;;;66.37;36.15;;;;;;;5.67;100.00;99211.23;1741130;82;21175;-64
2021/11/02 00:03:02;;;;;;;64.03;36.28;;;;;;;5.68;100.00;99203.87;1737403;82;20940;-65
2021/11/02 00:05:28;;;;;;;69.55;37.40;;;;;;;5.68;100.00;99204.67;1729786;81;21016;-64
2021/11/02 00:07:57;;;;;;;60.65;34.15;;;;;;;5.69;100.00;99199.49;1742506;82;20908;-64
2021/11/02 00:10:24;;;;;;;61.28;34.13;;;;;;;5.69;100.00;99194.05;1711431;81;20870;-64
2021/11/02 00:12:51;;;;;;;66.28;36.68;;;;;;;5.69;100.00;99195.41;1737195;81;21142;-64
2021/11/02 00:15:22;;;;;;;61.85;33.78;;;;;;;5.69;100.00;99187.79;1721289;83;20878;-64
2021/11/02 00:17:53;;;;;;;62.03;33.75;;;;;;;5.68;100.00;99178.00;1739386;82;21067;-64
2021/11/02 00:20:19;;;;;;;70.28;36.20;;;;;;;5.68;100.00;99178.00;1742535;82;21022;-64
2021/11/02 00:22:57;;;;;;;67.45;35.80;;;;;;;5.67;100.00;99176.38;1736797;81;20893;-64
2021/11/02 00:25:26;;;;;;;65.35;36.25;;;;;;;5.67;100.00;99178.55;1742889;82;21168;-64
2021/11/02 00:27:54;;;;;;;80.60;38.17;;;;;;;5.67;100.00;99181.27;1736739;82;21428;-62
2021/11/02 00:30:22;;;;;;;77.72;38.42;;;;;;;5.66;100.00;99179.65;1731191;81;20983;-62
2021/11/02 00:32:52;;;;;;;81.57;39.60;;;;;;;5.66;100.00;99184.28;1715707;81;20952;-62
2021/11/02 00:35:20;;;;;;;63.25;36.90;;;;;;;5.65;100.00;99183.47;1723890;83;20978;-63
2021/11/02 00:37:48;;;;;;;73.50;39.20;;;;;;;5.68;100.00;99188.34;1716883;83;21138;-62
2021/11/02 00:40:17;;;;;;;75.15;41.18;;;;;;;5.67;100.00;99189.44;1728029;83;20901;-62
2021/11/02 00:42:56;;;;;;;70.22;39.33;;;;;;;5.67;100.00;99192.16;1752757;81;20936;-62
2021/11/02 00:45:31;;;;;;;70.70;37.73;;;;;;;5.69;100.00;99190.51;1671165;84;21091;-62
2021/11/02 00:48:02;;;;;;;75.80;40.35;;;;;;;5.70;100.00;99192.94;1741705;82;21027;-62
2021/11/02 00:50:32;;;;;;;79.47;41.90;;;;;;;5.74;100.00;99188.53;1730450;82;21102;-62
2021/11/02 00:52:59;;;;;;;81.20;42.00;;;;;;;5.76;100.00;99188.23;1710146;83;20906;-62
2021/11/02 00:55:26;;;;;;;72.92;40.70;;;;;;;5.76;100.00;99185.52;1738982;82;20904;-62
2021/11/02 00:57:53;;;;;;;70.95;38.30;;;;;;;5.79;100.00;99180.81;1727990;82;21511;-62
2021/11/02 01:00:20;;;;;;;66.77;36.83;;;;;;;5.79;100.00;99176.73;1734795;81;20932;-62
2021/11/02 01:02:47;;;;;;;74.00;40.60;;;;;;;5.81;100.00;99173.16;1706543;83;21821;-62
2021/11/02 01:05:14;;;;;;;83.80;40.75;;;;;;;5.83;100.00;99168.23;1720328;82;20904;-63
2021/11/02 01:07:41;;;;;;;79.10;39.30;;;;;;;5.83;100.00;99173.67;1670860;83;20943;-62
2021/11/02 01:10:15;;;;;;;73.85;37.83;;;;;;;5.83;100.00;99164.14;1719330;82;20856;-63
2021/11/02 01:12:44;;;;;;;67.40;37.10;;;;;;;5.83;100.00;99162.78;1719233;82;20994;-63
2021/11/02 01:15:14;;;;;;;80.00;38.98;;;;;;;5.83;100.00;99162.23;1680250;84;21815;-62
2021/11/02 01:17:42;;;;;;;76.30;40.80;;;;;;;5.84;100.00;99158.95;1714217;83;20975;-62
2021/11/02 01:20:12;;;;;;;70.25;38.75;;;;;;;5.84;100.00;99161.13;1723286;82;20979;-62
2021/11/02 01:22:40;;;;;;;74.40;37.88;;;;;;;5.83;100.00;99158.70;1743925;81;21027;-63
2021/11/02 01:25:08;;;;;;;67.60;36.85;;;;;;;5.80;100.00;99156.56;1729678;80;20892;-62
2021/11/02 01:27:35;;;;;;;75.75;39.40;;;;;;;5.78;100.00;99154.13;1674956;84;21432;-62
2021/11/02 01:30:04;;;;;;;73.57;40.08;;;;;;;5.77;100.00;99156.63;1674924;84;21544;-63
2021/11/02 01:32:32;;;;;;;74.15;38.88;;;;;;;5.75;100.00;99153.38;1677013;84;21087;-62
2021/11/02 01:35:00;;;;;;;60.38;35.10;;;;;;;5.75;100.00;99151.21;1676523;84;21082;-62
2021/11/02 01:37:30;;;;;;;73.85;38.80;;;;;;;5.75;100.00;99153.94;1725869;82;21415;-63
2021/11/02 01:39:59;;;;;;;70.87;38.00;;;;;;;5.75;100.00;99145.21;1728407;81;21813;-63
2021/11/02 01:42:29;;;;;;;70.83;37.93;;;;;;;5.74;100.00;99138.70;1727148;81;20968;-62
2021/11/02 01:44:56;;;;;;;79.20;41.50;;;;;;;5.73;100.00;99145.25;1732089;81;20955;-63
2021/11/02 01:47:26;;;;;;;79.90;42.33;;;;;;;5.70;100.00;99141.20;1688181;85;20951;-63
2021/11/02 01:49:53;;;;;;;72.10;40.52;;;;;;;5.70;100.00;99136.30;1706003;83;21455;-63
2021/11/02 01:52:19;;;;;;;77.08;41.68;;;;;;;5.67;100.00;99132.25;1704643;83;21427;-64
2021/11/02 01:54:48;;;;;;;81.08;43.05;;;;;;;5.69;100.00;99135.48;1718561;82;21074;-63
2021/11/02 01:57:15;;;;;;;74.20;39.98;;;;;;;5.69;100.00;99134.13;1725063;82;20908;-63
2021/11/02 01:59:44;;;;;;;76.80;39.55;;;;;;;5.69;100.00;99128.68;1743367;81;20955;-64
2021/11/02 02:03:11;;;;;;;77.50;41.00;;;;;;;5.69;100.00;99122.42;1724133;81;20939;-64
2021/11/02 02:05:52;;;;;;;77.50;40.15;;;;;;;5.69;100.00;99119.15;1711511;81;21128;-63
2021/11/02 02:08:32;;;;;;;74.00;40.55;;;;;;;5.70;100.00;99118.59;1725353;81;20955;-62
2021/11/02 02:11:04;;;;;;;77.17;39.98;;;;;;;5.70;100.00;99109.87;1714429;81;21609;-62
2021/11/02 02:14:12;;;;;;;70.97;40.50;;;;;;;5.69;100.00;99109.63;1749007;81;20967;-64
2021/11/02 02:16:46;;;;;;;66.42;36.45;;;;;;;5.68;100.00;99114.81;1743021;81;21423;-63
2021/11/02 02:19:45;;;;;;;75.70;41.18;;;;;;;5.67;100.00;99120.00;1714026;82;22000;-63
2021/11/02 02:22:51;;;;;;;76.02;41.13;;;;;;;5.64;100.00;99114.58;1719268;82;20936;-63
2021/11/02 02:25:45;;;;;;;73.83;41.30;;;;;;;5.63;100.00;99108.06;1714681;83;20849;-63
2021/11/02 02:28:20;;;;;;;71.37;41.18;;;;;;;5.64;100.00;99100.16;1713435;82;20952;-63
2021/11/02 02:30:59;;;;;;;78.28;41.73;;;;;;;5.61;100.00;99098.83;1686006;85;20873;-64
2021/11/02 02:33:29;;;;;;;81.57;43.85;;;;;;;5.61;100.00;99096.66;1687065;85;21117;-64
2021/11/02 02:35:56;;;;;;;75.95;42.67;;;;;;;5.58;100.00;99100.78;1686926;85;20943;-64
2021/11/02 02:38:25;;;;;;;77.22;41.80;;;;;;;5.57;100.00;99096.44;1663434;84;20876;-64
2021/11/02 02:40:52;;;;;;;80.45;42.60;;;;;;;5.57;100.00;99083.38;1664932;84;21059;-64
2021/11/02 02:43:21;;;;;;;76.53;41.02;;;;;;;5.57;100.00;99092.35;1687756;84;21024;-64
2021/11/02 02:45:50;;;;;;;80.97;42.98;;;;;;;5.58;100.00;99089.89;1686869;85;21141;-64
2021/11/02 02:48:19;;;;;;;79.25;43.55;;;;;;;5.57;100.00;99085.55;1687049;85;21051;-63
2021/11/02 02:50:49;;;;;;;79.77;41.70;;;;;;;5.57;100.00;99084.73;1687164;85;20904;-63
2021/11/02 02:53:15;;;;;;;83.55;43.75;;;;;;;5.55;100.00;99082.30;1686737;85;21459;-63
2021/11/02 02:55:43;;;;;;;75.97;39.67;;;;;;;5.58;100.00;99074.10;1687233;85;20991;-63
2021/11/02 02:58:11;;;;;;;86.22;45.92;;;;;;;5.57;100.00;99084.19;1687149;85;21154;-64
2021/11/02 03:00:40;;;;;;;82.57;44.10;;;;;;;5.55;100.00;99093.20;1687337;85;21038;-65
2021/11/02 03:03:08;;;;;;;83.25;45.17;;;;;;;5.54;100.00;99090.22;1687099;85;20935;-65
2021/11/02 03:05:36;;;;;;;79.87;42.53;;;;;;;5.55;100.00;99086.94;1687021;83;20920;-64
2021/11/02 03:08:04;;;;;;;83.87;48.38;;;;;;;5.53;100.00;99083.70;1687061;85;20932;-64
2021/11/02 03:10:32;;;;;;;89.67;49.45;;;;;;;5.48;100.00;99081.05;1687393;85;21145;-64
2021/11/02 03:13:07;;;;;;;92.08;47.80;;;;;;;5.47;100.00;99075.34;1663370;85;20948;-64
2021/11/02 03:15:56;;;;;;;89.92;47.60;;;;;;;5.47;100.00;99075.34;1687351;85;20873;-64
2021/11/02 03:49:27;;;;;;;84.70;46.08;;;;;;;5.47;100.00;99053.56;1687164;85;21459;-64
2021/11/02 03:54:51;;;;;;;85.67;47.40;;;;;;;5.45;100.00;99046.25;1667050;85;21016;-63
2021/11/02 03:57:28;;;;;;;95.00;48.38;;;;;;;5.43;100.00;99051.17;1665865;85;21034;-63
2021/11/02 04:27:48;;;;;;;95.72;51.33;;;;;;;5.47;100.00;99006.73;1734462;81;20923;-64
2021/11/02 04:44:31;;;;;;;93.52;48.52;;;;;;;5.44;100.00;98986.10;1714079;82;20931;-63
2021/11/02 05:49:58;;;;;;;114.28;54.90;;;;;;;5.52;100.00;98981.34;1684299;84;20952;-64
2021/11/02 05:55:18;;;;;;;111.72;54.00;;;;;;;5.51;100.00;98986.53;1683943;84;21243;-64
2021/11/02 06:00:15;;;;;;;111.05;55.28;;;;;;;5.55;100.00;98987.56;1658534;86;20948;-65
2021/11/02 06:08:49;;;;;;;119.67;59.30;;;;;;;5.59;100.00;98985.31;1650177;85;22186;-64
2021/11/02 06:11:23;;;;;;;116.17;59.45;;;;;;;5.62;100.00;98988.80;1684570;85;20924;-63
2021/11/02 06:23:25;;;;;;;118.87;58.50;;;;;;;5.70;100.00;98990.59;1687020;85;21468;-63
2021/11/02 06:30:20;;;;;;;118.17;59.85;;;;;;;5.71;100.00;98994.39;1687290;85;20904;-63
2021/11/02 06:32:50;;;;;;;135.43;64.42;;;;;;;5.71;100.00;99003.11;1685099;84;20923;-63
2021/11/02 06:35:21;;;;;;;130.97;62.38;;;;;;;5.69;100.00;98995.80;1673567;84;21171;-64
2021/11/02 06:43:36;;;;;;;137.77;64.60;;;;;;;5.70;100.00;98993.33;1680316;84;21086;-69
2021/11/02 06:46:11;;;;;;;137.80;65.40;;;;;;;5.71;100.00;98998.47;1684195;84;20955;-68
2021/11/02 06:48:47;;;;;;;127.15;63.58;;;;;;;5.70;100.00;98995.49;1702728;82;21189;-69
2021/11/02 07:19:39;;;;;;;123.73;60.23;;;;;;;5.75;100.00;98985.88;1738982;81;20887;-65
2021/11/02 08:48:18;;;;;;;69.22;39.05;;;;;;;6.26;100.00;98918.22;1724622;80;21622;-69
2021/11/02 08:50:51;;;;;;;78.97;43.17;;;;;;;6.32;100.00;98906.66;1690777;82;21087;-69
2021/11/02 08:53:19;;;;;;;77.05;42.43;;;;;;;6.34;100.00;98906.62;1686174;83;21362;-78
2021/11/02 08:55:46;;;;;;;80.20;43.28;;;;;;;6.38;100.00;98898.61;1701327;83;20896;-70
2021/11/02 08:58:13;;;;;;;71.10;40.23;;;;;;;6.39;100.00;98906.48;1707974;84;21475;-72
2021/11/02 09:00:40;;;;;;;77.47;42.00;;;;;;;6.43;100.00;98897.95;1687038;83;21210;-78
2021/11/02 09:03:21;;;;;;;80.15;44.23;;;;;;;6.47;100.00;98898.95;1651298;85;20956;-76
2021/11/02 09:05:59;;;;;;;72.62;39.58;;;;;;;6.48;100.00;98900.58;1706652;82;21155;-73
2021/11/02 09:08:25;;;;;;;66.30;37.08;;;;;;;6.47;100.00;98894.87;1709758;82;20974;-67
2021/11/02 09:10:52;;;;;;;70.08;39.38;;;;;;;6.47;100.00;98889.97;1699774;83;20998;-73
2021/11/02 09:13:22;;;;;;;77.03;40.70;;;;;;;6.49;100.00;98886.38;1725815;82;21089;-68
2021/11/02 09:15:48;;;;;;;76.00;42.17;;;;;;;6.53;100.00;98879.21;1657980;83;21580;-74
2021/11/02 09:18:15;;;;;;;69.53;38.58;;;;;;;6.56;100.00;98879.97;1691336;83;21197;-75
2021/11/02 09:20:41;;;;;;;73.17;39.08;;;;;;;6.60;100.00;98875.52;1697087;83;21059;-73
2021/11/02 09:23:08;;;;;;;69.75;39.38;;;;;;;6.61;100.00;98875.77;1670152;84;21688;-70
2021/11/02 09:25:35;;;;;;;65.15;36.13;;;;;;;6.65;100.00;98866.41;1714332;82;20921;-68
2021/11/02 09:28:02;;;;;;;69.58;37.90;;;;;;;6.71;100.00;98867.36;1718148;81;21446;-69
2021/11/02 09:30:30;;;;;;;62.55;35.48;;;;;;;6.77;100.00;98869.42;1729527;81;21129;-74
2021/11/02 09:32:57;;;;;;;60.65;33.08;;;;;;;6.78;100.00;98862.85;1710415;82;20871;-73
2021/11/02 09:35:30;;;;;;;59.88;33.00;;;;;;;6.79;100.00;98854.36;1696228;83;21648;-68
2021/11/02 09:38:23;;;;;;;61.15;33.60;;;;;;;6.78;100.00;98850.58;1717705;83;28278;-68
2021/11/02 09:41:20;;;;;;;57.73;33.18;;;;;;;6.80;100.00;98852.44;1738104;81;20999;-68
2021/11/02 09:44:24;;;;;;;60.92;32.90;;;;;;;6.80;100.00;98842.89;1719146;81;21149;-67
2021/11/02 09:47:13;;;;;;;59.00;34.10;;;;;;;6.81;100.00;98837.69;1734312;81;21007;-68
2021/11/02 09:50:22;;;;;;;58.10;32.48;;;;;;;6.82;100.00;98830.56;1697121;82;21247;-65
2021/11/02 09:53:15;;;;;;;52.83;29.30;;;;;;;6.84;100.00;98828.88;1705038;82;21034;-66
2021/11/02 09:56:02;;;;;;;57.45;32.93;;;;;;;6.84;100.00;98820.14;1694638;83;21016;-66
2021/11/02 09:58:47;;;;;;;63.20;32.13;;;;;;;6.83;100.00;98815.80;1739267;82;21208;-68
2021/11/02 10:01:42;;;;;;;59.63;34.98;;;;;;;6.85;100.00;98810.03;1746063;81;20919;-71
2021/11/02 10:04:20;;;;;;;57.55;32.17;;;;;;;6.87;100.00;98809.17;1737774;81;21408;-72
2021/11/02 10:07:09;;;;;;;;;;;;;;;6.88;100.00;98803.96;1736162;81;20952;-71
2021/11/02 10:10:00;;;;;;;59.98;38.28;;;;;;;6.91;100.00;98797.89;1709119;82;39162;-69
2021/11/02 10:13:03;;;;;;;57.83;32.78;;;;;;;6.94;100.00;98798.05;1730145;82;21143;-69
2021/11/02 10:16:05;;;;;;;54.17;31.60;;;;;;;6.98;100.00;98791.41;1715323;82;21035;-66
2021/11/02 10:19:10;;;;;;;53.75;30.85;;;;;;;6.96;100.00;98786.27;1722679;82;21004;-69
2021/11/02 10:22:31;;;;;;;50.40;29.45;;;;;;;6.95;100.00;98786.58;1671601;83;21079;-67
2021/11/02 10:25:15;;;;;;;51.85;29.25;;;;;;;6.92;100.00;98779.84;1709943;82;21071;-69
2021/11/02 10:28:23;;;;;;;48.02;27.45;;;;;;;6.92;100.00;98776.31;1743661;81;22097;-69
2021/11/02 10:31:02;;;;;;;47.67;28.27;;;;;;;6.93;100.00;98772.46;1700528;82;21105;-69
2021/11/02 10:33:36;;;;;;;45.17;26.90;;;;;;;6.92;100.00;98772.22;1712429;81;21014;-69
2021/11/02 10:36:26;;;;;;;45.23;24.87;;;;;;;6.90;100.00;98768.44;1723472;82;20947;-72
2021/11/02 10:42:48;;;;;;;48.20;26.42;;;;;;;6.94;100.00;98759.03;1741520;81;21258;-69
2021/11/02 10:45:17;;;;;;;50.30;28.30;;;;;;;6.94;100.00;98753.02;1746764;81;21410;-70
2021/11/02 10:48:06;;;;;;;46.18;28.10;;;;;;;6.96;100.00;98749.98;1746107;80;21577;-72
2021/11/02 10:50:48;;;;;;;49.75;28.55;;;;;;;6.99;100.00;98749.92;1732652;81;20998;-74
2021/11/02 10:53:37;;;;;;;54.25;29.63;;;;;;;6.98;100.00;98745.02;1748073;81;21519;-76
2021/11/02 10:56:11;;;;;;;51.73;30.10;;;;;;;6.98;100.00;98745.58;1718767;80;21550;-74
2021/11/02 10:58:49;;;;;;;51.15;28.42;;;;;;;6.91;100.00;98741.95;1689705;83;21004;-73
2021/11/02 11:01:15;;;;;;;47.90;27.67;;;;;;;6.89;100.00;98737.37;1705567;83;21009;-73
2021/11/02 11:03:43;;;;;;;42.70;24.52;;;;;;;6.90;100.00;98732.97;1707289;82;21097;-72
2021/11/02 11:06:12;;;;;;;43.25;26.48;;;;;;;6.88;100.00;98725.65;1708489;83;21019;-74
2021/11/02 11:08:40;;;;;;;44.73;25.90;;;;;;;6.89;100.00;98721.00;1702389;83;21161;-73
2021/11/02 11:11:13;;;;;;;42.90;26.57;;;;;;;6.89;100.00;98717.70;1716842;82;20891;-72
2021/11/02 11:13:43;;;;;;;44.65;26.42;;;;;;;6.88;100.00;98709.84;1681680;84;21558;-70
2021/11/02 11:16:18;;;;;;;50.00;27.27;;;;;;;6.83;100.00;98714.86;1679739;83;20976;-74
2021/11/02 11:19:23;;;;;;;40.98;23.62;;;;;;;6.82;100.00;98713.80;1687990;84;20965;-76
2021/11/02 11:21:49;;;;;;;40.83;25.57;;;;;;;6.83;100.00;98705.87;1677934;84;21201;-75
2021/11/02 11:24:36;;;;;;;49.75;26.85;;;;;;;6.84;100.00;98693.84;1656498;85;21026;-80
2021/11/02 11:27:07;;;;;;;42.93;25.82;;;;;;;6.84;100.00;98692.48;1683867;83;21528;-83
2021/11/02 11:29:43;;;;;;;54.83;34.23;;;;;;;6.84;100.00;98690.55;1682708;85;20969;-78
2021/11/02 11:32:11;;;;;;;45.05;27.65;;;;;;;6.83;100.00;98688.14;1679188;84;20914;-75
2021/11/02 11:34:42;;;;;;;39.05;24.50;;;;;;;6.83;100.00;98684.85;1692911;82;22209;-75
2021/11/02 11:37:12;;;;;;;43.68;25.02;;;;;;;6.85;100.00;98683.17;1682485;84;21043;-79
2021/11/02 11:39:42;;;;;;;;;;;;;;;6.83;100.00;98681.32;1690697;84;20939;-82
2021/11/02 11:42:14;;;;;;;37.40;21.97;;;;;;;6.81;100.00;98674.81;1654448;86;20102;-72
2021/11/02 11:44:43;;;;;;;41.05;23.83;;;;;;;6.82;100.00;98681.87;1673680;84;20996;-72
2021/11/02 11:47:12;;;;;;;43.40;24.32;;;;;;;6.81;100.00;98684.91;1655490;85;21182;-75
2021/11/02 11:49:45;;;;;;;41.08;24.40;;;;;;;6.78;100.00;98680.89;1668043;85;20922;-75
2021/11/02 11:52:10;;;;;;;39.15;23.62;;;;;;;6.78;100.00;98679.53;1646307;85;20934;-74
2021/11/02 11:54:54;;;;;;;37.78;22.93;;;;;;;6.78;100.00;98677.36;1650475;86;21253;-73
2021/11/02 11:57:32;;;;;;;37.38;24.20;;;;;;;6.78;100.00;98678.72;1683214;82;21075;-73
2021/11/02 12:00:10;;;;;;;37.73;23.67;;;;;;;6.77;100.00;98677.91;1665309;83;22243;-68
2021/11/02 12:02:48;;;;;;;30.23;19.60;;;;;;;6.76;100.00;98676.30;1655598;84;21003;-73
2021/11/02 12:05:17;;;;;;;41.02;23.57;;;;;;;6.75;100.00;98686.16;1644330;86;21649;-86
2021/11/02 12:08:12;;;;;;;37.93;22.30;;;;;;;6.73;100.00;98689.20;1618716;88;21000;-67
2021/11/02 12:10:40;;;;;;;34.00;20.52;;;;;;;6.75;100.00;98686.16;1649816;86;21004;-71
2021/11/02 12:13:10;;;;;;;26.77;18.00;;;;;;;6.77;100.00;98681.20;1641926;87;21155;-69
2021/11/02 12:15:59;;;;;;;29.37;18.65;;;;;;;6.77;100.00;98682.00;1690613;83;20942;-69
2021/11/02 12:18:24;;;;;;;26.65;17.75;;;;;;;6.75;100.00;98677.42;1689945;83;21092;-72
2021/11/02 12:20:51;;;;;;;24.32;17.20;;;;;;;6.71;100.00;98675.06;1661688;83;21035;-70
2021/11/02 12:23:39;;;;;;;24.50;16.45;;;;;;;6.72;100.00;98670.41;1691338;83;21552;-69
2021/11/02 12:26:07;;;;;;;25.75;16.25;;;;;;;6.72;100.00;98671.78;1721710;83;21207;-70
2021/11/02 12:28:43;;;;;;;25.37;16.62;;;;;;;6.71;100.00;98672.34;1698924;83;20907;-70
2021/11/02 12:31:12;;;;;;;23.30;15.40;;;;;;;6.72;100.00;98664.96;1687102;83;20982;-70
2021/11/02 12:33:49;;;;;;;26.42;17.12;;;;;;;6.70;100.00;98663.91;1692546;83;21504;-70
2021/11/02 12:36:25;;;;;;;25.23;16.15;;;;;;;6.69;100.00;98661.49;1700184;83;21014;-70
2021/11/02 12:39:04;;;;;;;25.80;16.60;;;;;;;6.69;100.00;98655.48;1720936;82;21117;-69
2021/11/02 12:41:31;;;;;;;25.88;16.67;;;;;;;6.70;100.00;98665.83;1712218;82;21544;-69
2021/11/02 12:44:10;;;;;;;22.73;15.90;;;;;;;6.70;100.00;98653.00;1726093;82;20967;-68
2021/11/02 12:46:39;;;;;;;27.22;17.05;;;;;;;6.69;100.00;98650.58;1723758;83;20970;-69
2021/11/02 12:49:07;;;;;;;24.85;16.52;;;;;;;6.64;100.00;98647.42;1717989;83;21044;-69
2021/11/02 12:51:44;;;;;;;25.37;16.45;;;;;;;6.62;100.00;98648.30;1697944;83;21866;-68
2021/11/02 12:54:13;;;;;;;34.38;20.45;;;;;;;6.61;100.00;98650.22;1647997;84;21806;-69
2021/11/02 12:56:41;;;;;;;31.95;19.40;;;;;;;6.62;100.00;98651.02;1688526;83;21501;-69
2021/11/02 12:59:20;;;;;;;29.60;18.32;;;;;;;6.59;100.00;98644.83;1697560;83;22002;-69
2021/11/02 13:01:50;;;;;;;62.08;37.13;;;;;;;6.56;100.00;98643.52;1699496;83;21142;-67
2021/11/02 13:04:17;;;;;;;75.80;48.55;;;;;;;6.56;100.00;98639.99;1705348;83;21222;-67
2021/11/02 13:06:51;;;;;;;95.40;63.20;;;;;;;6.56;100.00;98640.80;1694566;83;21202;-68
2021/11/02 13:09:22;;;;;;;76.70;50.45;;;;;;;6.56;100.00;98639.44;1697429;82;21534;-69
2021/11/02 13:12:09;;;;;;;79.77;44.30;;;;;;;6.58;100.00;98636.39;1704888;82;22257;-68
2021/11/02 13:14:38;;;;;;;52.23;32.28;;;;;;;6.56;100.00;98638.08;1697484;82;20899;-69
2021/11/02 13:17:09;;;;;;;49.93;30.57;;;;;;;6.53;100.00;98644.15;1700112;82;21139;-71
2021/11/02 13:19:41;;;;;;;60.88;37.65;;;;;;;6.52;100.00;98637.08;1696222;83;21101;-71
2021/11/02 13:22:19;;;;;;;59.27;35.80;;;;;;;6.51;100.00;98636.84;1691984;83;21022;-69
2021/11/02 13:25:09;;;;;;;50.95;29.82;;;;;;;6.52;100.00;98630.27;1692627;84;20923;-70
2021/11/02 13:27:41;;;;;;;39.05;24.55;;;;;;;6.52;100.00;98626.17;1668481;83;21028;-70
2021/11/02 13:30:33;;;;;;;45.92;25.23;;;;;;;6.52;100.00;98622.64;1698654;83;21019;-69
2021/11/02 13:33:18;;;;;;;41.02;23.70;;;;;;;6.52;100.00;98623.45;1691776;82;25176;-69
2021/11/02 13:36:02;;;;;;;35.52;20.60;;;;;;;6.53;100.00;98621.53;1689091;83;21036;-84
2021/11/02 13:38:42;;;;;;;31.20;19.17;;;;;;;6.53;100.00;98615.52;1704831;82;21156;-74
2021/11/02 13:41:24;;;;;;;27.20;18.40;;;;;;;6.56;100.00;98622.27;1718853;83;20932;-73
2021/11/02 13:43:55;;;;;;;40.08;21.90;;;;;;;6.56;100.00;98624.44;1687529;83;21210;-75
2021/11/02 13:46:25;;;;;;;49.15;26.07;;;;;;;6.56;100.00;98631.25;1670526;83;22433;-71
2021/11/02 13:48:52;;;;;;;44.77;23.95;;;;;;;6.56;100.00;98627.72;1666506;84;21111;-68
2021/11/02 13:51:21;;;;;;;39.27;21.87;;;;;;;6.54;100.00;98627.23;1656989;83;21014;-69
2021/11/02 13:53:49;;;;;;;34.13;19.12;;;;;;;6.55;100.00;98626.11;1682470;83;21015;-71
2021/11/02 13:56:26;;;;;;;36.03;21.00;;;;;;;6.57;100.00;98630.14;1681437;83;21251;-76
2021/11/02 13:58:55;;;;;;;33.88;19.98;;;;;;;6.58;100.00;98626.30;1663388;84;20987;-70
2021/11/02 14:01:49;;;;;;;34.85;20.10;;;;;;;6.60;100.00;98619.97;1679428;84;20948;-71
2021/11/02 14:04:38;;;;;;;31.27;19.60;;;;;;;6.63;100.00;98622.08;1692484;83;20952;-70
2021/11/02 14:07:13;;;;;;;27.27;18.23;;;;;;;6.65;100.00;98619.03;1661264;83;21038;-70
2021/11/02 14:09:44;;;;;;;23.15;15.00;;;;;;;6.65;100.00;98613.58;1673762;83;21240;-69
2021/11/02 14:12:30;;;;;;;21.95;13.98;;;;;;;6.69;100.00;98612.40;1659342;85;21079;-69
2021/11/02 14:15:20;;;;;;;21.80;15.25;;;;;;;6.69;100.00;98608.31;1668810;84;21106;-70
2021/11/02 14:18:14;;;;;;;23.60;13.90;;;;;;;6.69;100.00;98606.95;1654707;86;21107;-70
2021/11/02 14:20:49;;;;;;;29.12;19.37;;;;;;;6.68;100.00;98610.79;1654450;86;21528;-71
2021/11/02 14:23:21;;;;;;;30.95;22.75;;;;;;;6.66;100.00;98608.38;1637008;86;21858;-71
2021/11/02 14:25:48;;;;;;;27.20;19.92;;;;;;;6.65;100.00;98605.95;1634343;86;21093;-70
2021/11/02 14:28:14;;;;;;;28.73;20.72;;;;;;;6.67;100.00;98618.73;1707085;83;21094;-72
2021/11/02 14:30:43;;;;;;;25.35;18.23;;;;;;;6.68;100.00;98624.42;1656013;83;21042;-78
2021/11/02 14:33:11;;;;;;;17.98;12.05;;;;;;;6.68;100.00;98623.06;1701505;83;21055;-70
2021/11/02 14:36:04;;;;;;;18.52;12.25;;;;;;;6.70;100.00;98627.65;1689136;84;21463;-71
2021/11/02 14:38:48;;;;;;;19.30;12.60;;;;;;;6.70;100.00;98626.28;1685999;84;20979;-70
2021/11/02 14:41:32;;;;;;;19.25;13.10;;;;;;;6.71;100.00;98627.89;1690040;83;21466;-70
2021/11/02 14:44:29;;;;;;;24.45;14.90;;;;;;;6.71;100.00;98629.25;1680284;83;21046;-70
2021/11/02 14:46:59;;;;;;;27.17;16.32;;;;;;;6.72;100.00;98628.14;1698513;83;21660;-70
2021/11/02 14:49:36;;;;;;;28.12;18.65;;;;;;;6.71;100.00;98630.63;1700343;82;21146;-71
2021/11/02 14:52:07;;;;;;;21.40;14.93;;;;;;;6.69;100.00;98626.84;1694090;83;21018;-68
2021/11/02 14:54:40;;;;;;;27.00;15.77;;;;;;;6.71;100.00;98633.34;1703143;83;21075;-69
2021/11/02 14:57:26;;;;;;;23.15;16.23;;;;;;;6.70;100.00;98638.55;1705938;83;21030;-70
2021/11/02 14:59:57;;;;;;;27.50;19.90;;;;;;;6.71;100.00;98641.53;1680358;83;21093;-69
2021/11/02 15:02:44;;;;;;;28.65;20.80;;;;;;;6.74;100.00;98636.81;1687613;83;21169;-68
2021/11/02 15:05:16;;;;;;;35.80;24.50;;;;;;;6.76;100.00;98642.77;1678005;84;21558;-74
2021/11/02 15:07:51;;;;;;;33.10;23.00;;;;;;;6.74;100.00;98637.63;1684228;84;21059;-71
2021/11/02 15:10:23;;;;;;;27.00;20.00;;;;;;;6.76;100.00;98635.95;1687743;83;21118;-71
2021/11/02 15:12:49;;;;;;;26.73;19.17;;;;;;;6.73;100.00;98633.28;1701682;83;21011;-70
2021/11/02 15:15:16;;;;;;;44.90;27.45;;;;;;;6.73;100.00;98633.28;1699466;83;21130;-73
2021/11/02 15:17:46;;;;;;;57.65;33.18;;;;;;;6.71;100.00;98627.33;1695922;83;21052;-74
2021/11/02 15:20:18;;;;;;;47.13;27.93;;;;;;;6.72;100.00;98627.58;1695284;83;21166;-72
2021/11/02 15:22:46;;;;;;;50.83;28.00;;;;;;;6.73;100.00;98627.02;1672392;83;21095;-73
2021/11/02 15:25:21;;;;;;;49.45;28.47;;;;;;;6.74;100.00;98615.00;1671674;84;21429;-71
2021/11/02 15:27:53;;;;;;;50.08;27.45;;;;;;;6.74;100.00;98616.36;1638235;84;21819;-72
2021/11/02 15:30:22;;;;;;;62.30;32.63;;;;;;;6.76;100.00;98605.38;1685081;84;28017;-73
2021/11/02 15:32:54;;;;;;;64.03;38.78;;;;;;;6.77;100.00;98606.98;1684265;84;20954;-77
2021/11/02 15:35:28;;;;;;;41.77;28.73;;;;;;;6.77;100.00;98598.81;1690896;83;21501;-79
2021/11/02 15:38:02;;;;;;;41.85;24.80;;;;;;;6.77;100.00;98596.64;1679818;83;21012;-69
2021/11/02 15:40:39;;;;;;;55.25;29.20;;;;;;;6.77;100.00;98601.53;1688001;84;21235;-74
2021/11/02 15:43:12;;;;;;;42.17;22.55;;;;;;;6.77;100.00;98601.53;1690805;82;20972;-71
2021/11/02 15:45:45;;;;;;;23.32;15.15;;;;;;;6.79;100.00;98608.05;1696044;83;20987;-72
2021/11/02 15:48:27;;;;;;;17.32;12.90;;;;;;;6.79;100.00;98602.59;1653837;84;21086;-74
2021/11/02 15:50:55;;;;;;;18.48;13.22;;;;;;;6.79;100.00;98603.39;1665525;84;21055;-71
2021/11/02 15:53:29;;;;;;;19.48;12.90;;;;;;;6.79;100.00;98599.30;1676224;84;21145;-75
2021/11/02 15:56:02;;;;;;;17.37;12.85;;;;;;;6.78;100.00;98597.69;1643009;86;21139;-74
2021/11/02 15:58:34;;;;;;;17.25;12.65;;;;;;;6.78;100.00;98603.70;1682053;83;21543;-80
2021/11/02 16:01:09;;;;;;;22.75;12.73;;;;;;;6.78;100.00;98609.16;1666355;85;21711;-69
2021/11/02 16:03:40;;;;;;;18.52;13.70;;;;;;;6.76;100.00;98603.21;1665457;84;21565;-69
2021/11/02 16:06:17;;;;;;;21.17;14.47;;;;;;;6.76;100.00;98609.47;1696655;83;22097;-69
2021/11/02 16:08:47;;;;;;;22.80;14.18;;;;;;;6.77;100.00;98608.91;1695081;83;21027;-70
2021/11/02 16:11:15;;;;;;;20.77;13.13;;;;;;;6.78;100.00;98595.52;1703194;83;21047;-72
2021/11/02 16:13:52;;;;;;;20.92;13.30;;;;;;;6.79;100.00;98601.22;1692442;83;20992;-76
2021/11/02 16:16:21;;;;;;;20.27;13.45;;;;;;;6.80;100.00;98612.38;1690212;83;21040;-81
2021/11/02 16:18:58;;;;;;;17.25;12.68;;;;;;;6.82;100.00;98604.13;1700565;83;21569;-79
2021/11/02 16:21:32;;;;;;;18.95;13.95;;;;;;;6.83;100.00;98614.48;1707966;83;21134;-76
2021/11/02 16:23:56;;;;;;;22.62;15.45;;;;;;;6.81;100.00;98609.34;1663137;83;21082;-77
2021/11/02 16:26:31;;;;;;;23.15;15.45;;;;;;;6.81;100.00;98611.27;1642227;84;21049;-76
2021/11/02 16:29:20;;;;;;;21.93;14.70;;;;;;;6.80;100.00;98607.73;1658420;84;20989;-84
2021/11/02 16:31:56;;;;;;;18.80;13.30;;;;;;;6.79;100.00;98615.66;1658606;83;20956;-79
2021/11/02 16:34:24;;;;;;;18.87;13.18;;;;;;;6.78;100.00;98606.44;1688271;83;21027;-78
2021/11/02 16:36:56;;;;;;;23.05;15.20;;;;;;;6.78;100.00;98599.05;1705604;82;21089;-75
2021/11/02 16:39:24;;;;;;;32.35;19.45;;;;;;;6.79;100.00;98599.30;1697586;83;21596;-74